METAR Data
IDs: Format: Raw Decoded Include TAF

Data at: 2315 UTC 29 May 2020

METAR for:KHNR (Harlan Muni, IA, US)
Text:KHNR 292255Z AUTO 35008G15KT 10SM CLR 23/00 A3015 RMK AO2
Temperature: 23.0°C ( 73°F)
Dewpoint: 0.0°C ( 32°F) [RH = 22%]
Pressure (altimeter):30.15 inches Hg (1021.1 mb)
Winds:from the N (350 degrees) at 9 MPH (8 knots; 4.1 m/s) gusting to 17 MPH (15 knots; 7.7 m/s)
Visibility:10 or more sm (16+ km)
Ceiling:at least 12,000 feet AGL
Clouds:sky clear below 12,000 feet AGL
QC Flag:automated observation with no human augmentation